• Join FlightAware (Why Join?)
  • Login
  • US Flag 
06:31AM EST


 

Airport Tracker/Info


-or-


 

Live Flight TrackerFlight Track Log ✈ SWA714 ✈ 19-Apr-2013 ✈ KLBB - KDAL

Flight Track Log - Related Links

Times and Time Zones

All times are in EDT time to prevent confusion due to time zone crossing. See the SWA714 flight status page for this flight to view local times or setup timezone preferences in your user account.

Time Position Orientation Groundspeed Altitude Reporting Facility
EDT Latitude Longitude Course Direction KTS MPH feet Rate Location/Type
10:43AM 33.6883 -101.8319 358° North 154 177 4,100  Level Fort Worth Center
10:44AM 33.7008 -101.8325 358° North 163 188 4,700 2,100 Climbing Fort Worth Center
10:45AM 33.7503 -101.7900 36° Northeast 255 293 6,900 2,520 Climbing Fort Worth Center
10:46AM 33.7797 -101.7289 60° Northeast 279 321 9,300 2,940 Climbing Fort Worth Center
10:47AM 33.8136 -101.6508 62° Northeast 279 321 12,100 2,700 Climbing Fort Worth Center
10:48AM 33.8567 -101.5453 64° Northeast 304 350 14,700 2,400 Climbing Fort Worth Center
10:49AM 33.8933 -101.4444 66° East 344 396 16,900 2,340 Climbing Fort Worth Center
10:50AM 33.9061 -101.3025 84° East 381 438 19,400 2,460 Climbing Fort Worth Center
10:51AM 33.9144 -101.1750 85° East 387 445 21,900 2,100 Climbing Fort Worth Center
10:52AM 33.9225 -101.0353 86° East 407 468 23,600 1,740 Climbing Fort Worth Center
10:53AM 33.9286 -100.8931 87° East 412 474 25,400 1,800 Climbing Fort Worth Center
10:54AM 33.9392 -100.7431 85° East 429 494 27,200 1,500 Climbing Fort Worth Center
10:55AM 33.9428 -100.5981 88° East 437 503 28,500 1,320 Climbing Fort Worth Center
10:56AM 33.9531 -100.4408 85° East 448 516 29,900 1,320 Climbing Fort Worth Center
10:57AM 33.9608 -100.2808 87° East 459 528 31,200 1,200 Climbing Fort Worth Center
10:58AM 33.9667 -100.1231 87° East 466 536 32,400 1,320 Climbing Fort Worth Center
10:59AM 33.9761 -99.9631 86° East 471 542 33,900 1,020 Climbing Fort Worth Center
11:00AM 33.9836 -99.8006 87° East 477 549 34,500 540 Climbing Fort Worth Center
11:01AM 33.9908 -99.6328 87° East 488 562 35,000 240 Climbing Fort Worth Center
11:02AM 33.9917 -99.4625 90° East 493 567 35,000 -300 Level Fort Worth Center
11:03AM 33.9503 -99.3014 107° East 503 579 34,500 -780 Descending Fort Worth Center
11:04AM 33.9047 -99.1403 109° East 503 579 33,500 -1,140 Descending Fort Worth Center
11:05AM 33.8650 -98.9869 107° East 491 565 32,300 -1,140 Descending Fort Worth Center
11:06AM 33.8250 -98.8411 108° East 479 551 31,300 -900 Descending Fort Worth Center
11:07AM 33.7908 -98.7106 107° East 459 528 30,500 -1,080 Descending Fort Worth Center
11:08AM 33.7464 -98.5625 110° East 464 534 29,200 -1,920 Descending Fort Worth Center
11:09AM 33.7000 -98.3972 109° East 477 549 26,700 -3,060 Descending Fort Worth Center
11:10AM 33.6342 -98.2567 119° Southeast 466 536 23,100 -3,660 Descending Fort Worth Center
11:11AM 33.5703 -98.1214 120° Southeast 466 536 19,400 -2,100 Descending Fort Worth Center
11:12AM 33.5061 -97.9914 121° Southeast 471 542 18,900 -1,140 Descending Fort Worth Center
11:13AM 33.4525 -97.8839 121° Southeast 430 495 17,200 -1,860 Descending Fort Worth Center
11:14AM 33.3903 -97.7567 120° Southeast 410 472 15,200 -1,920 Descending Fort Worth Center
11:15AM 33.3444 -97.6597 119° Southeast 386 444 13,400 -1,920 Descending Fort Worth Center
11:16AM 33.2947 -97.5528 119° Southeast 371 427 11,400 -1,200 Descending Fort Worth Center
11:17AM 33.2217 -97.4533 131° Southeast 359 413 11,000 -240 Descending Fort Worth Center
11:18AM 33.1547 -97.3761 136° Southeast 359 413 11,000  Level Fort Worth Center
11:19AM 33.0714 -97.2772 135° Southeast 374 430 11,000 -60 Level Fort Worth Center
11:20AM 32.9981 -97.1931 136° Southeast 374 430 10,900 -660 Descending Fort Worth Center
11:21AM 32.9394 -97.1139 131° Southeast 335 386 9,700 -1,500 Descending Fort Worth Center
11:21AM 32.9167 -97.0833 132° Southeast 292 336 8,600 -1,260 Descending Dallas / Fort Worth TRACON
11:22AM 32.8667 -97.0167 132° Southeast 263 303 7,800 -1,260 Descending Dallas / Fort Worth TRACON
11:23AM 32.8167 -96.9333 126° Southeast 264 304 6,100 -1,500 Descending Dallas / Fort Worth TRACON
11:24AM 32.7667 -96.8667 132° Southeast 266 306 4,900 -1,020 Descending Dallas / Fort Worth TRACON
11:25AM 32.7167 -96.8000 132° Southeast 234 269 4,100 -960 Descending Dallas / Fort Worth TRACON
11:26AM 32.7333 -96.7500 68° East 199 229 3,000 -960 Descending Dallas / Fort Worth TRACON
11:27AM 32.7667 -96.7667 337° Northwest 163 188 2,200 -660 Descending Dallas / Fort Worth TRACON
11:28AM 32.8000 -96.8000 320° Northwest 137 158 1,700 -600 Descending Dallas / Fort Worth TRACON
11:29AM 32.8167 -96.8333 301° West 125 144 1,000 -720 Descending Dallas / Fort Worth TRACON